Terminal Aerodrome Forecast
Issued by NWS Pittsburgh, PA

Current Version | Previous Version | Text Only | Print | Product List | Glossary Off
Versions: 1 2 3 4 5 6 7 8 9 10 11 12 13 14 15 16 17 18 19 20 21 22 23 24 25 26 27 28 29

663
FTUS41 KPBZ 251457 AAA
TAFPIT
TAF AMD
KPIT 251457Z 2515/2618 11012G18KT P6SM SCT015 OVC060
     FM260300 09007KT P6SM BKN025
     FM260800 VRB03KT P6SM OVC015
     FM261500 16008KT P6SM SCT015=

USA.gov is the U.S. government's official web portal to all federal, state and local government web resources and services.